sensor_id;sensor_type;location;lat;lon;timestamp;P1;durP1;ratioP1;P2;durP2;ratioP2
26562;SDS011;14217;50.986;5.826;2023-03-01T00:02:39;1.20;;;0.65;;
26562;SDS011;14217;50.986;5.826;2023-03-01T00:07:41;1.00;;;0.60;;
26562;SDS011;14217;50.986;5.826;2023-03-01T00:12:44;0.52;;;0.50;;
26562;SDS011;14217;50.986;5.826;2023-03-01T00:17:46;0.88;;;0.80;;
26562;SDS011;14217;50.986;5.826;2023-03-01T00:22:48;1.17;;;0.80;;
26562;SDS011;14217;50.986;5.826;2023-03-01T00:27:50;1.02;;;0.70;;
26562;SDS011;14217;50.986;5.826;2023-03-01T00:32:52;2.20;;;0.80;;
26562;SDS011;14217;50.986;5.826;2023-03-01T00:37:56;0.93;;;0.52;;
26562;SDS011;14217;50.986;5.826;2023-03-01T00:42:59;0.88;;;0.47;;
26562;SDS011;14217;50.986;5.826;2023-03-01T00:48:01;2.15;;;0.65;;
26562;SDS011;14217;50.986;5.826;2023-03-01T00:53:03;1.13;;;0.70;;
26562;SDS011;14217;50.986;5.826;2023-03-01T00:58:06;1.45;;;0.80;;
26562;SDS011;14217;50.986;5.826;2023-03-01T01:03:08;0.60;;;0.60;;
26562;SDS011;14217;50.986;5.826;2023-03-01T01:08:10;3.10;;;0.68;;
26562;SDS011;14217;50.986;5.826;2023-03-01T01:13:13;1.60;;;0.70;;
26562;SDS011;14217;50.986;5.826;2023-03-01T01:18:15;0.90;;;0.82;;
26562;SDS011;14217;50.986;5.826;2023-03-01T01:23:22;2.17;;;0.57;;
26562;SDS011;14217;50.986;5.826;2023-03-01T01:28:24;0.90;;;0.65;;
26562;SDS011;14217;50.986;5.826;2023-03-01T01:33:26;1.73;;;0.68;;
26562;SDS011;14217;50.986;5.826;2023-03-01T01:38:28;0.90;;;0.50;;
26562;SDS011;14217;50.986;5.826;2023-03-01T01:43:33;6.43;;;0.55;;
26562;SDS011;14217;50.986;5.826;2023-03-01T01:48:58;1.77;;;0.63;;
26562;SDS011;14217;50.986;5.826;2023-03-01T01:54:01;0.95;;;0.85;;
26562;SDS011;14217;50.986;5.826;2023-03-01T01:59:03;1.15;;;0.80;;
26562;SDS011;14217;50.986;5.826;2023-03-01T02:04:06;0.52;;;0.52;;
26562;SDS011;14217;50.986;5.826;2023-03-01T02:09:11;0.70;;;0.60;;
26562;SDS011;14217;50.986;5.826;2023-03-01T02:14:15;0.80;;;0.50;;
26562;SDS011;14217;50.986;5.826;2023-03-01T02:19:35;0.70;;;0.50;;
26562;SDS011;14217;50.986;5.826;2023-03-01T02:29:55;1.33;;;0.68;;
26562;SDS011;14217;50.986;5.826;2023-03-01T02:34:58;0.77;;;0.60;;
26562;SDS011;14217;50.986;5.826;2023-03-01T02:40:02;0.70;;;0.60;;
26562;SDS011;14217;50.986;5.826;2023-03-01T02:45:07;1.27;;;0.60;;
26562;SDS011;14217;50.986;5.826;2023-03-01T02:55:32;0.75;;;0.65;;
26562;SDS011;14217;50.986;5.826;2023-03-01T03:00:35;0.70;;;0.70;;
26562;SDS011;14217;50.986;5.826;2023-03-01T03:05:46;0.88;;;0.75;;
26562;SDS011;14217;50.986;5.826;2023-03-01T03:10:49;0.63;;;0.50;;
26562;SDS011;14217;50.986;5.826;2023-03-01T03:15:51;1.75;;;0.50;;
26562;SDS011;14217;50.986;5.826;2023-03-01T03:20:53;0.57;;;0.40;;
26562;SDS011;14217;50.986;5.826;2023-03-01T03:25:56;1.65;;;0.80;;
26562;SDS011;14217;50.986;5.826;2023-03-01T03:30:57;0.70;;;0.50;;
26562;SDS011;14217;50.986;5.826;2023-03-01T03:36:04;1.80;;;0.63;;
26562;SDS011;14217;50.986;5.826;2023-03-01T03:41:11;0.85;;;0.75;;
26562;SDS011;14217;50.986;5.826;2023-03-01T03:46:14;0.90;;;0.57;;
26562;SDS011;14217;50.986;5.826;2023-03-01T03:51:18;0.75;;;0.50;;
26562;SDS011;14217;50.986;5.826;2023-03-01T03:56:20;0.80;;;0.60;;
26562;SDS011;14217;50.986;5.826;2023-03-01T04:01:22;1.52;;;0.73;;
26562;SDS011;14217;50.986;5.826;2023-03-01T04:06:25;0.45;;;0.43;;
26562;SDS011;14217;50.986;5.826;2023-03-01T04:11:27;0.50;;;0.50;;
26562;SDS011;14217;50.986;5.826;2023-03-01T04:16:29;1.17;;;0.60;;
26562;SDS011;14217;50.986;5.826;2023-03-01T04:21:31;2.20;;;0.80;;
26562;SDS011;14217;50.986;5.826;2023-03-01T04:26:33;1.00;;;0.70;;
26562;SDS011;14217;50.986;5.826;2023-03-01T04:31:35;0.63;;;0.40;;
26562;SDS011;14217;50.986;5.826;2023-03-01T04:36:37;1.00;;;0.70;;
26562;SDS011;14217;50.986;5.826;2023-03-01T04:41:41;0.65;;;0.55;;
26562;SDS011;14217;50.986;5.826;2023-03-01T04:46:44;0.93;;;0.50;;
26562;SDS011;14217;50.986;5.826;2023-03-01T04:51:46;0.50;;;0.50;;
26562;SDS011;14217;50.986;5.826;2023-03-01T04:56:48;0.90;;;0.80;;
26562;SDS011;14217;50.986;5.826;2023-03-01T05:01:50;0.82;;;0.65;;
26562;SDS011;14217;50.986;5.826;2023-03-01T05:06:53;0.60;;;0.60;;
26562;SDS011;14217;50.986;5.826;2023-03-01T05:11:55;0.93;;;0.65;;
26562;SDS011;14217;50.986;5.826;2023-03-01T05:16:57;1.33;;;0.70;;
26562;SDS011;14217;50.986;5.826;2023-03-01T05:22:05;0.68;;;0.60;;
26562;SDS011;14217;50.986;5.826;2023-03-01T05:27:07;6.72;;;0.63;;
26562;SDS011;14217;50.986;5.826;2023-03-01T05:32:09;0.52;;;0.43;;
26562;SDS011;14217;50.986;5.826;2023-03-01T05:37:11;0.70;;;0.50;;
26562;SDS011;14217;50.986;5.826;2023-03-01T05:42:16;0.57;;;0.30;;
26562;SDS011;14217;50.986;5.826;2023-03-01T05:47:18;0.63;;;0.50;;
26562;SDS011;14217;50.986;5.826;2023-03-01T05:52:22;0.43;;;0.43;;
26562;SDS011;14217;50.986;5.826;2023-03-01T05:57:24;1.80;;;1.02;;
26562;SDS011;14217;50.986;5.826;2023-03-01T06:02:27;0.88;;;0.50;;
26562;SDS011;14217;50.986;5.826;2023-03-01T06:07:30;0.70;;;0.70;;
26562;SDS011;14217;50.986;5.826;2023-03-01T06:12:33;0.73;;;0.70;;
26562;SDS011;14217;50.986;5.826;2023-03-01T06:17:39;1.63;;;0.63;;
26562;SDS011;14217;50.986;5.826;2023-03-01T06:22:42;0.82;;;0.80;;
26562;SDS011;14217;50.986;5.826;2023-03-01T06:27:45;0.85;;;0.80;;
26562;SDS011;14217;50.986;5.826;2023-03-01T06:32:49;2.05;;;0.45;;
26562;SDS011;14217;50.986;5.826;2023-03-01T06:37:51;0.95;;;0.70;;
26562;SDS011;14217;50.986;5.826;2023-03-01T06:42:54;0.70;;;0.70;;
26562;SDS011;14217;50.986;5.826;2023-03-01T06:48:06;2.83;;;1.00;;
26562;SDS011;14217;50.986;5.826;2023-03-01T06:53:08;2.00;;;0.60;;
26562;SDS011;14217;50.986;5.826;2023-03-01T06:58:10;1.45;;;0.88;;
26562;SDS011;14217;50.986;5.826;2023-03-01T07:03:14;1.38;;;0.80;;
26562;SDS011;14217;50.986;5.826;2023-03-01T07:08:19;3.55;;;1.02;;
26562;SDS011;14217;50.986;5.826;2023-03-01T07:13:21;1.63;;;0.95;;
26562;SDS011;14217;50.986;5.826;2023-03-01T07:18:25;1.67;;;1.00;;
26562;SDS011;14217;50.986;5.826;2023-03-01T07:23:27;1.92;;;1.10;;
26562;SDS011;14217;50.986;5.826;2023-03-01T07:28:30;13.65;;;1.13;;
26562;SDS011;14217;50.986;5.826;2023-03-01T07:33:37;2.17;;;1.25;;
26562;SDS011;14217;50.986;5.826;2023-03-01T07:38:39;3.65;;;1.23;;
26562;SDS011;14217;50.986;5.826;2023-03-01T07:43:41;1.40;;;1.13;;
26562;SDS011;14217;50.986;5.826;2023-03-01T07:48:42;7.60;;;1.75;;
26562;SDS011;14217;50.986;5.826;2023-03-01T07:53:47;7.78;;;1.40;;
26562;SDS011;14217;50.986;5.826;2023-03-01T07:58:51;4.50;;;2.05;;
26562;SDS011;14217;50.986;5.826;2023-03-01T08:03:53;5.35;;;1.73;;
26562;SDS011;14217;50.986;5.826;2023-03-01T08:08:55;2.97;;;1.20;;
26562;SDS011;14217;50.986;5.826;2023-03-01T08:13:58;12.57;;;1.70;;
26562;SDS011;14217;50.986;5.826;2023-03-01T08:19:06;1.95;;;1.58;;
26562;SDS011;14217;50.986;5.826;2023-03-01T08:24:10;2.38;;;1.20;;
26562;SDS011;14217;50.986;5.826;2023-03-01T08:29:12;1.30;;;1.00;;
26562;SDS011;14217;50.986;5.826;2023-03-01T08:34:15;2.40;;;1.70;;
26562;SDS011;14217;50.986;5.826;2023-03-01T08:39:19;2.10;;;1.42;;
26562;SDS011;14217;50.986;5.826;2023-03-01T08:44:22;3.22;;;1.30;;
26562;SDS011;14217;50.986;5.826;2023-03-01T08:49:24;3.45;;;1.33;;
26562;SDS011;14217;50.986;5.826;2023-03-01T08:54:26;2.83;;;1.42;;
26562;SDS011;14217;50.986;5.826;2023-03-01T08:59:28;1.23;;;1.05;;
26562;SDS011;14217;50.986;5.826;2023-03-01T09:04:37;1.92;;;1.30;;
26562;SDS011;14217;50.986;5.826;2023-03-01T09:09:39;2.28;;;1.30;;
26562;SDS011;14217;50.986;5.826;2023-03-01T09:14:41;2.15;;;1.30;;
26562;SDS011;14217;50.986;5.826;2023-03-01T09:19:43;4.97;;;1.38;;
26562;SDS011;14217;50.986;5.826;2023-03-01T09:24:46;1.30;;;1.20;;
26562;SDS011;14217;50.986;5.826;2023-03-01T09:29:48;1.52;;;1.30;;
26562;SDS011;14217;50.986;5.826;2023-03-01T09:34:50;1.95;;;1.50;;
26562;SDS011;14217;50.986;5.826;2023-03-01T09:40:08;2.03;;;1.10;;
26562;SDS011;14217;50.986;5.826;2023-03-01T09:45:39;2.00;;;1.42;;
26562;SDS011;14217;50.986;5.826;2023-03-01T09:50:45;1.08;;;0.95;;
26562;SDS011;14217;50.986;5.826;2023-03-01T09:56:00;2.95;;;1.20;;
26562;SDS011;14217;50.986;5.826;2023-03-01T10:01:28;2.42;;;1.90;;
26562;SDS011;14217;50.986;5.826;2023-03-01T10:06:34;1.95;;;1.10;;
26562;SDS011;14217;50.986;5.826;2023-03-01T10:11:37;1.70;;;1.40;;
26562;SDS011;14217;50.986;5.826;2023-03-01T10:16:44;3.35;;;1.67;;
26562;SDS011;14217;50.986;5.826;2023-03-01T10:21:51;1.48;;;1.38;;
26562;SDS011;14217;50.986;5.826;2023-03-01T10:26:55;1.67;;;1.08;;
26562;SDS011;14217;50.986;5.826;2023-03-01T10:32:06;1.60;;;1.30;;
26562;SDS011;14217;50.986;5.826;2023-03-01T10:37:15;2.13;;;1.48;;
26562;SDS011;14217;50.986;5.826;2023-03-01T10:42:28;1.67;;;1.23;;
26562;SDS011;14217;50.986;5.826;2023-03-01T10:47:35;1.80;;;1.45;;
26562;SDS011;14217;50.986;5.826;2023-03-01T10:52:37;2.75;;;1.77;;
26562;SDS011;14217;50.986;5.826;2023-03-01T10:57:42;2.22;;;1.33;;
26562;SDS011;14217;50.986;5.826;2023-03-01T11:02:47;2.25;;;1.35;;
26562;SDS011;14217;50.986;5.826;2023-03-01T11:08:02;1.55;;;1.38;;
26562;SDS011;14217;50.986;5.826;2023-03-01T11:13:18;2.67;;;1.60;;
26562;SDS011;14217;50.986;5.826;2023-03-01T11:18:21;2.13;;;1.58;;
26562;SDS011;14217;50.986;5.826;2023-03-01T11:23:40;2.65;;;1.77;;
26562;SDS011;14217;50.986;5.826;2023-03-01T11:28:53;2.10;;;1.65;;
26562;SDS011;14217;50.986;5.826;2023-03-01T11:34:10;3.25;;;1.88;;
26562;SDS011;14217;50.986;5.826;2023-03-01T11:44:25;1.48;;;1.15;;
26562;SDS011;14217;50.986;5.826;2023-03-01T12:01:06;1.88;;;1.27;;
26562;SDS011;14217;50.986;5.826;2023-03-01T12:06:00;2.30;;;1.58;;
26562;SDS011;14217;50.986;5.826;2023-03-01T12:17:02;1.42;;;1.33;;
26562;SDS011;14217;50.986;5.826;2023-03-01T12:38:24;1.45;;;1.17;;
26562;SDS011;14217;50.986;5.826;2023-03-01T12:49:08;1.70;;;1.48;;
26562;SDS011;14217;50.986;5.826;2023-03-01T12:54:15;1.75;;;1.33;;
26562;SDS011;14217;50.986;5.826;2023-03-01T13:05:19;1.67;;;1.10;;
26562;SDS011;14217;50.986;5.826;2023-03-01T13:15:58;2.15;;;1.40;;
26562;SDS011;14217;50.986;5.826;2023-03-01T13:21:29;2.42;;;1.20;;
26562;SDS011;14217;50.986;5.826;2023-03-01T13:27:08;2.08;;;1.50;;
26562;SDS011;14217;50.986;5.826;2023-03-01T13:32:19;1.67;;;1.33;;
26562;SDS011;14217;50.986;5.826;2023-03-01T13:37:33;2.08;;;1.40;;
26562;SDS011;14217;50.986;5.826;2023-03-01T13:42:38;2.28;;;1.23;;
26562;SDS011;14217;50.986;5.826;2023-03-01T13:47:42;1.20;;;0.80;;
26562;SDS011;14217;50.986;5.826;2023-03-01T13:52:59;1.60;;;1.38;;
26562;SDS011;14217;50.986;5.826;2023-03-01T13:58:13;1.65;;;1.50;;
26562;SDS011;14217;50.986;5.826;2023-03-01T14:03:24;1.52;;;0.88;;
26562;SDS011;14217;50.986;5.826;2023-03-01T14:08:29;1.67;;;1.23;;
26562;SDS011;14217;50.986;5.826;2023-03-01T14:13:36;1.20;;;0.98;;
26562;SDS011;14217;50.986;5.826;2023-03-01T14:24:00;1.95;;;1.13;;
26562;SDS011;14217;50.986;5.826;2023-03-01T14:29:02;1.13;;;0.80;;
26562;SDS011;14217;50.986;5.826;2023-03-01T14:34:04;1.10;;;0.77;;
26562;SDS011;14217;50.986;5.826;2023-03-01T14:39:16;1.40;;;0.90;;
26562;SDS011;14217;50.986;5.826;2023-03-01T14:44:24;1.38;;;1.27;;
26562;SDS011;14217;50.986;5.826;2023-03-01T14:49:26;2.10;;;1.00;;
26562;SDS011;14217;50.986;5.826;2023-03-01T14:59:43;1.38;;;1.10;;
26562;SDS011;14217;50.986;5.826;2023-03-01T15:04:55;1.25;;;1.02;;
26562;SDS011;14217;50.986;5.826;2023-03-01T15:10:01;1.15;;;1.05;;
26562;SDS011;14217;50.986;5.826;2023-03-01T15:20:25;1.70;;;1.08;;
26562;SDS011;14217;50.986;5.826;2023-03-01T15:25:31;2.45;;;0.90;;
26562;SDS011;14217;50.986;5.826;2023-03-01T15:30:35;1.67;;;0.98;;
26562;SDS011;14217;50.986;5.826;2023-03-01T15:40:49;2.63;;;1.38;;
26562;SDS011;14217;50.986;5.826;2023-03-01T15:45:56;1.38;;;1.08;;
26562;SDS011;14217;50.986;5.826;2023-03-01T15:50:59;2.03;;;1.00;;
26562;SDS011;14217;50.986;5.826;2023-03-01T15:56:03;1.38;;;1.08;;
26562;SDS011;14217;50.986;5.826;2023-03-01T16:01:08;1.48;;;1.05;;
26562;SDS011;14217;50.986;5.826;2023-03-01T16:06:14;1.27;;;0.88;;
26562;SDS011;14217;50.986;5.826;2023-03-01T16:11:17;1.55;;;1.13;;
26562;SDS011;14217;50.986;5.826;2023-03-01T16:16:21;2.30;;;1.15;;
26562;SDS011;14217;50.986;5.826;2023-03-01T16:21:24;0.85;;;0.80;;
26562;SDS011;14217;50.986;5.826;2023-03-01T16:26:26;1.35;;;0.90;;
26562;SDS011;14217;50.986;5.826;2023-03-01T16:31:29;7.13;;;0.90;;
26562;SDS011;14217;50.986;5.826;2023-03-01T16:36:32;1.58;;;1.48;;
26562;SDS011;14217;50.986;5.826;2023-03-01T16:41:34;10.13;;;1.75;;
26562;SDS011;14217;50.986;5.826;2023-03-01T16:46:36;7.05;;;1.90;;
26562;SDS011;14217;50.986;5.826;2023-03-01T16:51:38;1.90;;;1.05;;
26562;SDS011;14217;50.986;5.826;2023-03-01T16:56:43;1.38;;;1.15;;
26562;SDS011;14217;50.986;5.826;2023-03-01T17:01:45;3.78;;;0.85;;
26562;SDS011;14217;50.986;5.826;2023-03-01T17:14:38;1.95;;;1.25;;
26562;SDS011;14217;50.986;5.826;2023-03-01T17:19:42;2.78;;;1.80;;
26562;SDS011;14217;50.986;5.826;2023-03-01T17:24:44;2.92;;;1.23;;
26562;SDS011;14217;50.986;5.826;2023-03-01T17:29:47;1.48;;;1.00;;
26562;SDS011;14217;50.986;5.826;2023-03-01T17:34:49;2.28;;;1.27;;
26562;SDS011;14217;50.986;5.826;2023-03-01T17:39:51;2.05;;;1.15;;
26562;SDS011;14217;50.986;5.826;2023-03-01T17:44:53;2.50;;;1.25;;
26562;SDS011;14217;50.986;5.826;2023-03-01T17:49:55;1.90;;;0.80;;
26562;SDS011;14217;50.986;5.826;2023-03-01T17:54:57;1.20;;;0.75;;
26562;SDS011;14217;50.986;5.826;2023-03-01T17:59:59;1.73;;;1.02;;
26562;SDS011;14217;50.986;5.826;2023-03-01T18:05:01;0.98;;;0.88;;
26562;SDS011;14217;50.986;5.826;2023-03-01T18:10:05;2.00;;;0.90;;
26562;SDS011;14217;50.986;5.826;2023-03-01T18:15:08;1.90;;;1.05;;
26562;SDS011;14217;50.986;5.826;2023-03-01T18:20:10;1.52;;;1.30;;
26562;SDS011;14217;50.986;5.826;2023-03-01T18:25:13;2.80;;;1.33;;
26562;SDS011;14217;50.986;5.826;2023-03-01T18:30:15;2.70;;;1.45;;
26562;SDS011;14217;50.986;5.826;2023-03-01T18:35:17;1.30;;;1.00;;
26562;SDS011;14217;50.986;5.826;2023-03-01T18:40:19;6.40;;;1.50;;
26562;SDS011;14217;50.986;5.826;2023-03-01T18:45:21;1.90;;;1.80;;
26562;SDS011;14217;50.986;5.826;2023-03-01T18:50:23;3.17;;;1.23;;
26562;SDS011;14217;50.986;5.826;2023-03-01T18:55:25;1.92;;;0.90;;
26562;SDS011;14217;50.986;5.826;2023-03-01T19:00:27;4.00;;;0.90;;
26562;SDS011;14217;50.986;5.826;2023-03-01T19:05:29;1.95;;;0.90;;
26562;SDS011;14217;50.986;5.826;2023-03-01T19:10:31;1.00;;;0.60;;
26562;SDS011;14217;50.986;5.826;2023-03-01T19:15:33;1.65;;;1.05;;
26562;SDS011;14217;50.986;5.826;2023-03-01T19:20:35;1.27;;;0.90;;
26562;SDS011;14217;50.986;5.826;2023-03-01T19:25:39;1.27;;;0.80;;
26562;SDS011;14217;50.986;5.826;2023-03-01T19:30:41;0.82;;;0.63;;
26562;SDS011;14217;50.986;5.826;2023-03-01T19:35:43;1.17;;;0.77;;
26562;SDS011;14217;50.986;5.826;2023-03-01T19:40:45;1.52;;;1.00;;
26562;SDS011;14217;50.986;5.826;2023-03-01T19:45:51;1.85;;;0.70;;
26562;SDS011;14217;50.986;5.826;2023-03-01T19:50:53;1.55;;;0.80;;
26562;SDS011;14217;50.986;5.826;2023-03-01T19:55:56;1.40;;;1.00;;
26562;SDS011;14217;50.986;5.826;2023-03-01T20:00:59;1.13;;;0.80;;
26562;SDS011;14217;50.986;5.826;2023-03-01T20:06:15;2.22;;;1.10;;
26562;SDS011;14217;50.986;5.826;2023-03-01T20:11:20;11.65;;;0.98;;
26562;SDS011;14217;50.986;5.826;2023-03-01T20:16:22;1.17;;;0.88;;
26562;SDS011;14217;50.986;5.826;2023-03-01T20:21:27;0.98;;;0.90;;
26562;SDS011;14217;50.986;5.826;2023-03-01T20:26:29;1.67;;;0.77;;
26562;SDS011;14217;50.986;5.826;2023-03-01T20:31:33;0.85;;;0.80;;
26562;SDS011;14217;50.986;5.826;2023-03-01T20:36:35;1.67;;;1.00;;
26562;SDS011;14217;50.986;5.826;2023-03-01T20:41:39;0.90;;;0.90;;
26562;SDS011;14217;50.986;5.826;2023-03-01T20:46:41;1.30;;;1.00;;
26562;SDS011;14217;50.986;5.826;2023-03-01T20:51:43;0.80;;;0.60;;
26562;SDS011;14217;50.986;5.826;2023-03-01T20:56:46;0.57;;;0.50;;
26562;SDS011;14217;50.986;5.826;2023-03-01T21:01:48;1.98;;;0.85;;
26562;SDS011;14217;50.986;5.826;2023-03-01T21:06:50;1.13;;;0.80;;
26562;SDS011;14217;50.986;5.826;2023-03-01T21:11:52;1.23;;;0.90;;
26562;SDS011;14217;50.986;5.826;2023-03-01T21:16:54;1.13;;;0.65;;
26562;SDS011;14217;50.986;5.826;2023-03-01T21:21:56;1.27;;;0.90;;
26562;SDS011;14217;50.986;5.826;2023-03-01T21:26:58;1.00;;;0.90;;
26562;SDS011;14217;50.986;5.826;2023-03-01T21:32:02;2.03;;;1.10;;
26562;SDS011;14217;50.986;5.826;2023-03-01T21:37:06;1.25;;;0.90;;
26562;SDS011;14217;50.986;5.826;2023-03-01T21:42:10;1.40;;;0.90;;
26562;SDS011;14217;50.986;5.826;2023-03-01T21:47:12;2.67;;;1.48;;
26562;SDS011;14217;50.986;5.826;2023-03-01T21:52:14;1.02;;;0.88;;
26562;SDS011;14217;50.986;5.826;2023-03-01T21:57:17;1.23;;;0.88;;
26562;SDS011;14217;50.986;5.826;2023-03-01T22:02:20;3.40;;;1.10;;
26562;SDS011;14217;50.986;5.826;2023-03-01T22:07:22;3.95;;;1.58;;
26562;SDS011;14217;50.986;5.826;2023-03-01T22:12:24;8.30;;;1.50;;
26562;SDS011;14217;50.986;5.826;2023-03-01T22:17:26;7.45;;;1.33;;
26562;SDS011;14217;50.986;5.826;2023-03-01T22:22:27;7.40;;;1.50;;
26562;SDS011;14217;50.986;5.826;2023-03-01T22:27:29;3.58;;;1.27;;
26562;SDS011;14217;50.986;5.826;2023-03-01T22:32:31;6.05;;;1.25;;
26562;SDS011;14217;50.986;5.826;2023-03-01T22:37:33;2.40;;;1.25;;
26562;SDS011;14217;50.986;5.826;2023-03-01T22:42:35;12.88;;;1.63;;
26562;SDS011;14217;50.986;5.826;2023-03-01T22:47:37;4.07;;;1.55;;
26562;SDS011;14217;50.986;5.826;2023-03-01T22:52:39;7.72;;;1.33;;
26562;SDS011;14217;50.986;5.826;2023-03-01T22:57:41;3.20;;;0.90;;
26562;SDS011;14217;50.986;5.826;2023-03-01T23:02:43;2.78;;;1.23;;
26562;SDS011;14217;50.986;5.826;2023-03-01T23:07:45;3.30;;;1.05;;
26562;SDS011;14217;50.986;5.826;2023-03-01T23:12:49;1.38;;;1.13;;
26562;SDS011;14217;50.986;5.826;2023-03-01T23:17:51;2.05;;;0.90;;
26562;SDS011;14217;50.986;5.826;2023-03-01T23:22:53;1.90;;;1.30;;
26562;SDS011;14217;50.986;5.826;2023-03-01T23:28:02;0.65;;;0.60;;
26562;SDS011;14217;50.986;5.826;2023-03-01T23:33:04;2.55;;;0.95;;
26562;SDS011;14217;50.986;5.826;2023-03-01T23:38:06;3.47;;;1.00;;
26562;SDS011;14217;50.986;5.826;2023-03-01T23:43:08;3.80;;;0.82;;
26562;SDS011;14217;50.986;5.826;2023-03-01T23:48:13;1.30;;;1.20;;
26562;SDS011;14217;50.986;5.826;2023-03-01T23:53:16;1.08;;;0.98;;
26562;SDS011;14217;50.986;5.826;2023-03-01T23:58:19;1.05;;;0.90;;
